Time;durP1;ratioP1;P1;durP2;ratioP2;P2;SDS_P1;SDS_P2;PMS_P1;PMS_P2;Temp;Humidity;BMP_temperature;BMP_pressure;BME280_temperature;BME280_humidity;BME280_pressure;Samples;Min_cycle;Max_cycle;Signal;HPM_P1;HPM_P2
2022/10/11 00:01:00;;;;;;;4.80;3.40;;;14.40;93.50;;;;;;5009597;28;20198;-81
2022/10/11 00:03:27;;;;;;;4.73;3.30;;;14.30;93.50;;;;;;5010834;28;20283;-81
2022/10/11 00:05:55;;;;;;;4.30;3.10;;;14.30;93.50;;;;;;5011897;28;20261;-82
2022/10/11 00:08:25;;;;;;;5.17;3.57;;;14.30;93.60;;;;;;5007376;28;20215;-81
2022/10/11 00:11:07;;;;;;;4.83;3.87;;;14.30;93.60;;;;;;5011813;28;20301;-82
2022/10/11 00:13:40;;;;;;;3.73;3.20;;;14.30;93.60;;;;;;5007484;28;20287;-82
2022/10/11 00:16:09;;;;;;;5.00;2.90;;;14.30;93.70;;;;;;5008077;28;20207;-80
2022/10/11 00:18:37;;;;;;;4.90;3.40;;;14.30;93.70;;;;;;5007067;28;20582;-80
2022/10/11 00:21:06;;;;;;;6.37;3.83;;;14.20;93.70;;;;;;5011055;28;20186;-81
2022/10/11 00:23:34;;;;;;;5.13;3.33;;;14.20;93.70;;;;;;5007487;28;20193;-81
2022/10/11 00:26:04;;;;;;;5.53;3.87;;;14.20;93.80;;;;;;5011058;28;20660;-80
2022/10/11 00:28:31;;;;;;;6.77;4.17;;;14.20;93.80;;;;;;5010382;28;20193;-81
2022/10/11 00:30:58;;;;;;;5.13;3.70;;;14.20;93.90;;;;;;5010475;28;20233;-80
2022/10/11 00:33:26;;;;;;;4.77;3.53;;;14.10;93.90;;;;;;5009849;28;20762;-81
2022/10/11 00:35:53;;;;;;;5.60;3.53;;;14.10;94.00;;;;;;5010770;28;20665;-80
2022/10/11 00:38:20;;;;;;;6.70;4.23;;;14.10;94.00;;;;;;5008975;28;20734;-80
2022/10/11 00:40:47;;;;;;;5.17;3.50;;;14.10;94.00;;;;;;5009626;28;20201;-80
2022/10/11 00:43:18;;;;;;;4.47;3.60;;;14.10;94.10;;;;;;5009051;28;20211;-80
2022/10/11 00:46:04;;;;;;;7.47;4.10;;;14.10;94.20;;;;;;5011227;28;20194;-80
2022/10/11 00:48:38;;;;;;;9.13;4.23;;;14.00;94.20;;;;;;5011495;28;20255;-80
2022/10/11 00:51:12;;;;;;;6.43;4.37;;;14.00;94.60;;;;;;5013803;28;20574;-80
2022/10/11 00:53:39;;;;;;;6.33;4.07;;;13.90;94.30;;;;;;5011068;28;20210;-80
2022/10/11 00:56:12;;;;;;;5.03;3.43;;;13.90;94.30;;;;;;5009412;28;20201;-80
2022/10/11 00:58:41;;;;;;;5.27;3.03;;;13.90;94.70;;;;;;5009885;28;20197;-80
2022/10/11 01:01:08;;;;;;;6.60;4.20;;;13.90;94.40;;;;;;5009515;28;20557;-80
2022/10/11 01:03:37;;;;;;;4.47;3.20;;;13.90;94.50;;;;;;5008106;28;20225;-80
2022/10/11 01:06:05;;;;;;;5.17;3.73;;;13.90;94.50;;;;;;5007956;28;20597;-81
2022/10/11 01:08:32;;;;;;;4.83;3.40;;;13.90;94.50;;;;;;5007621;28;20201;-80
2022/10/11 01:10:59;;;;;;;7.57;3.67;;;13.90;94.60;;;;;;5010256;28;20234;-81
2022/10/11 01:13:40;;;;;;;5.17;3.17;;;14.00;94.60;;;;;;5007263;28;20232;-81
2022/10/11 01:16:14;;;;;;;3.00;2.67;;;14.00;94.60;;;;;;5009823;28;20212;-81
2022/10/11 01:18:48;;;;;;;4.20;2.97;;;14.00;94.50;;;;;;5008823;28;20711;-81
2022/10/11 01:21:26;;;;;;;2.70;2.50;;;14.00;94.50;;;;;;5008561;28;20556;-81
2022/10/11 01:24:28;;;;;;;2.57;2.37;;;13.90;94.50;;;;;;5008009;28;20545;-81
2022/10/11 01:27:36;;;;;;;3.07;2.47;;;13.90;94.80;;;;;;5008688;28;20297;-81
2022/10/11 01:30:18;;;;;;;3.57;2.23;;;13.90;94.60;;;;;;5013088;28;20226;-81
2022/10/11 01:32:53;;;;;;;3.10;2.53;;;13.90;94.60;;;;;;5004802;28;20204;-81
2022/10/11 01:35:26;;;;;;;4.60;2.77;;;13.90;94.60;;;;;;5009502;28;20282;-81
2022/10/11 01:38:00;;;;;;;4.57;3.20;;;13.90;94.70;;;;;;5007148;28;20292;-81
2022/10/11 01:40:31;;;;;;;4.50;3.03;;;13.90;94.80;;;;;;5006242;28;20218;-81
2022/10/11 01:42:59;;;;;;;3.90;2.90;;;13.90;94.80;;;;;;5006301;28;20193;-80
2022/10/11 01:45:29;;;;;;;3.90;3.30;;;13.90;94.90;;;;;;5008107;28;20619;-81
2022/10/11 01:48:05;;;;;;;4.50;3.37;;;13.90;94.90;;;;;;5008659;28;20200;-81
2022/10/11 01:50:43;;;;;;;5.13;3.20;;;13.80;94.90;;;;;;5008344;28;20196;-81
2022/10/11 01:53:31;;;;;;;4.53;2.60;;;13.80;95.00;;;;;;5006368;28;20566;-81
2022/10/11 01:56:09;;;;;;;3.33;3.03;;;13.90;95.10;;;;;;5007945;28;20698;-81
2022/10/11 01:58:47;;;;;;;5.13;3.13;;;13.90;95.20;;;;;;5008399;28;20229;-81
2022/10/11 02:01:25;;;;;;;3.73;3.10;;;13.90;95.20;;;;;;5006536;28;21586;-81
2022/10/11 02:04:00;;;;;;;4.43;3.20;;;13.90;95.30;;;;;;5008628;28;20200;-81
2022/10/11 02:06:35;;;;;;;3.13;2.83;;;13.90;95.40;;;;;;5007635;28;20244;-81
2022/10/11 02:09:12;;;;;;;3.77;3.00;;;13.90;95.50;;;;;;5008746;28;20523;-81
2022/10/11 02:11:39;;;;;;;3.10;2.80;;;13.90;95.50;;;;;;5007602;28;20233;-80
2022/10/11 02:14:11;;;;;;;3.73;3.20;;;14.00;95.60;;;;;;5008447;28;20194;-80
2022/10/11 02:16:43;;;;;;;3.50;2.70;;;14.00;95.60;;;;;;5007129;28;20206;-83
2022/10/11 02:19:13;;;;;;;4.13;3.13;;;14.00;95.70;;;;;;5006590;28;20194;-81
2022/10/11 02:21:43;;;;;;;3.93;3.10;;;14.00;95.70;;;;;;5009090;28;20565;-81
2022/10/11 02:24:16;;;;;;;3.97;3.30;;;14.00;95.70;;;;;;5007103;28;20531;-81
2022/10/11 02:26:46;;;;;;;3.70;3.00;;;14.00;96.20;;;;;;5007771;28;20605;-80
2022/10/11 02:29:17;;;;;;;3.87;2.87;;;14.00;95.90;;;;;;5007407;28;20293;-81
2022/10/11 02:31:46;;;;;;;3.93;3.10;;;14.00;96.00;;;;;;5009059;28;20255;-81
2022/10/11 02:34:18;;;;;;;3.63;3.10;;;13.90;96.10;;;;;;5008717;28;20687;-81
2022/10/11 02:36:51;;;;;;;4.67;3.70;;;13.90;96.20;;;;;;5009389;28;20673;-81
2022/10/11 02:39:24;;;;;;;3.10;2.80;;;13.90;96.30;;;;;;5008346;28;20287;-81
2022/10/11 02:41:55;;;;;;;4.43;3.23;;;13.90;96.30;;;;;;5022549;28;20198;-81
2022/10/11 02:44:30;;;;;;;5.03;3.13;;;13.90;96.40;;;;;;5008699;28;20273;-81
2022/10/11 02:47:00;;;;;;;8.43;4.13;;;13.90;96.50;;;;;;5008830;28;20299;-80
2022/10/11 02:49:28;;;;;;;7.57;4.60;;;13.90;96.50;;;;;;5009415;28;20197;-81
2022/10/11 02:51:56;;;;;;;4.67;4.03;;;13.90;96.70;;;;;;5008648;28;20307;-81
2022/10/11 02:54:24;;;;;;;7.10;3.40;;;13.90;96.90;;;;;;5006829;28;20281;-81
2022/10/11 02:56:51;;;;;;;4.70;3.93;;;13.90;96.90;;;;;;5007831;28;20200;-81
2022/10/11 02:59:19;;;;;;;3.77;3.37;;;13.90;97.00;;;;;;5008676;28;20311;-82
2022/10/11 03:01:46;;;;;;;6.03;3.60;;;13.90;97.10;;;;;;5006740;28;20539;-82
2022/10/11 03:04:14;;;;;;;4.87;3.73;;;13.90;97.60;;;;;;5005248;28;20198;-82
2022/10/11 03:06:42;;;;;;;3.87;3.47;;;13.90;97.30;;;;;;5007042;28;20225;-81
2022/10/11 03:09:09;;;;;;;4.77;3.40;;;13.90;97.50;;;;;;5007034;28;20224;-82
2022/10/11 03:11:37;;;;;;;3.40;3.10;;;13.90;97.60;;;;;;5008213;28;20216;-82
2022/10/11 03:14:04;;;;;;;7.97;4.97;;;13.90;97.80;;;;;;5007250;28;20204;-81
2022/10/11 03:16:31;;;;;;;5.43;4.10;;;13.90;98.20;;;;;;5006705;28;20688;-82
2022/10/11 03:18:59;;;;;;;4.87;3.70;;;13.90;98.40;;;;;;5007272;28;20212;-81
2022/10/11 03:21:27;;;;;;;6.80;3.93;;;13.90;98.50;;;;;;5011919;28;20675;-81
2022/10/11 03:23:54;;;;;;;3.37;3.03;;;14.00;98.80;;;;;;5011318;28;20198;-81
2022/10/11 03:26:21;;;;;;;3.87;3.40;;;14.00;98.90;;;;;;5010594;28;20205;-81
2022/10/11 03:28:48;;;;;;;4.53;3.20;;;14.00;99.00;;;;;;5011564;28;20222;-81
2022/10/11 03:31:17;;;;;;;5.20;3.37;;;14.00;99.20;;;;;;5011176;28;20587;-79
2022/10/11 03:33:44;;;;;;;3.10;2.80;;;14.10;99.50;;;;;;5009525;28;20192;-82
2022/10/11 03:36:11;;;;;;;3.60;3.13;;;14.10;99.60;;;;;;5012189;28;20198;-81
2022/10/11 03:38:40;;;;;;;3.10;2.80;;;14.20;99.80;;;;;;5008875;28;20209;-82
2022/10/11 03:41:07;;;;;;;3.80;3.00;;;14.20;99.90;;;;;;5010740;28;20202;-81
2022/10/11 03:43:34;;;;;;;3.77;2.80;;;14.20;99.90;;;;;;5010706;28;20197;-82
2022/10/11 03:46:01;;;;;;;2.70;2.50;;;14.20;99.90;;;;;;5011990;28;20656;-82
2022/10/11 03:48:29;;;;;;;3.77;2.50;;;14.30;99.90;;;;;;5011421;28;20214;-82
2022/10/11 03:50:56;;;;;;;2.67;2.47;;;14.30;99.90;;;;;;5012386;28;20201;-81
2022/10/11 03:53:23;;;;;;;2.70;2.43;;;14.30;99.90;;;;;;5010862;28;20315;-81
2022/10/11 03:55:54;;;;;;;3.03;2.70;;;14.30;99.90;;;;;;5012650;28;20194;-82
2022/10/11 03:58:23;;;;;;;3.00;2.70;;;14.30;99.90;;;;;;5011330;28;20202;-81
2022/10/11 04:00:51;;;;;;;2.00;1.83;;;14.40;99.90;;;;;;5010144;28;20205;-81
2022/10/11 04:03:18;;;;;;;3.10;2.30;;;14.40;99.90;;;;;;5010675;28;20547;-82
2022/10/11 04:05:46;;;;;;;5.77;3.03;;;14.40;99.90;;;;;;5010032;28;20225;-82
2022/10/11 04:08:13;;;;;;;3.47;2.27;;;14.50;99.90;;;;;;5008936;28;20230;-81
2022/10/11 04:10:41;;;;;;;2.80;2.40;;;14.50;99.90;;;;;;5012618;28;20209;-81
2022/10/11 04:13:10;;;;;;;3.33;1.97;;;14.50;99.90;;;;;;5010142;28;20237;-80
2022/10/11 04:15:37;;;;;;;2.27;1.87;;;14.50;99.90;;;;;;5010296;28;20552;-81
2022/10/11 04:18:04;;;;;;;2.80;1.93;;;14.50;99.90;;;;;;5008808;28;20191;-81
2022/10/11 04:20:32;;;;;;;3.90;2.30;;;14.50;99.90;;;;;;5007944;28;20195;-80
2022/10/11 04:22:59;;;;;;;2.80;2.33;;;14.50;99.90;;;;;;5010681;28;20554;-80
2022/10/11 04:25:26;;;;;;;1.87;1.77;;;14.50;99.90;;;;;;5010049;28;20320;-80
2022/10/11 04:27:53;;;;;;;2.17;1.97;;;14.60;99.90;;;;;;5012575;28;20190;-81
2022/10/11 04:30:22;;;;;;;2.00;1.80;;;14.50;99.90;;;;;;5015864;28;20202;-81
2022/10/11 04:32:49;;;;;;;1.80;1.63;;;14.60;99.90;;;;;;5011443;28;20211;-81
2022/10/11 04:35:16;;;;;;;1.63;1.20;;;14.60;99.90;;;;;;5010197;28;20610;-81
2022/10/11 04:37:44;;;;;;;3.60;1.47;;;14.60;99.90;;;;;;5008403;28;20206;-80
2022/10/11 04:40:12;;;;;;;2.30;1.30;;;14.60;99.90;;;;;;5010424;28;20528;-80
2022/10/11 04:42:39;;;;;;;0.93;0.93;;;14.60;99.90;;;;;;5007801;28;20896;-82
2022/10/11 04:45:08;;;;;;;0.90;0.90;;;14.60;99.90;;;;;;5010749;28;20561;-80
2022/10/11 04:47:36;;;;;;;1.57;1.23;;;14.60;99.90;;;;;;5009267;28;20578;-80
2022/10/11 04:50:04;;;;;;;1.03;0.93;;;14.70;99.90;;;;;;5010275;28;20325;-81
2022/10/11 04:52:31;;;;;;;3.47;1.20;;;14.70;99.90;;;;;;5009004;28;20210;-80
2022/10/11 04:54:58;;;;;;;1.23;1.00;;;14.70;99.90;;;;;;5006519;28;20194;-81
2022/10/11 04:57:26;;;;;;;1.83;1.10;;;14.70;99.90;;;;;;5010027;28;20266;-81
2022/10/11 04:59:53;;;;;;;1.50;0.90;;;14.60;99.90;;;;;;5008917;28;20202;-81
2022/10/11 05:02:20;;;;;;;1.07;0.97;;;14.60;99.90;;;;;;5009533;28;20827;-81
2022/10/11 05:04:48;;;;;;;1.67;1.00;;;14.60;99.90;;;;;;5008071;28;20217;-82
2022/10/11 05:07:16;;;;;;;1.60;0.87;;;14.60;99.90;;;;;;5008160;28;20637;-82
2022/10/11 05:09:43;;;;;;;0.70;0.70;;;14.60;99.90;;;;;;5008187;28;20821;-80
2022/10/11 05:12:10;;;;;;;0.73;0.60;;;14.70;99.90;;;;;;5010155;28;20202;-80
2022/10/11 05:14:37;;;;;;;0.50;0.50;;;14.70;99.90;;;;;;5007706;28;20202;-82
2022/10/11 05:17:04;;;;;;;0.60;0.60;;;14.70;99.90;;;;;;5007203;28;20206;-80
2022/10/11 05:19:31;;;;;;;0.73;0.60;;;14.70;99.90;;;;;;5008060;28;20211;-80
2022/10/11 05:22:00;;;;;;;0.93;0.60;;;14.70;99.90;;;;;;5008760;28;20198;-80
2022/10/11 05:24:27;;;;;;;1.90;1.00;;;14.70;99.90;;;;;;5009204;28;20193;-81
2022/10/11 05:26:54;;;;;;;1.13;0.70;;;14.60;99.90;;;;;;5009899;28;20205;-81
2022/10/11 05:29:21;;;;;;;2.73;0.80;;;14.60;99.90;;;;;;5008213;28;20190;-80
2022/10/11 05:31:48;;;;;;;1.77;0.93;;;14.60;99.90;;;;;;5007630;28;20568;-80
2022/10/11 05:34:15;;;;;;;1.00;0.60;;;14.60;99.90;;;;;;5008289;28;20586;-81
2022/10/11 05:36:43;;;;;;;0.80;0.60;;;14.60;99.90;;;;;;5009859;28;20197;-80
2022/10/11 05:39:11;;;;;;;1.20;0.53;;;14.60;99.90;;;;;;5008870;28;20208;-82
2022/10/11 05:41:38;;;;;;;1.60;0.50;;;14.70;99.90;;;;;;5008868;28;20194;-81
2022/10/11 05:44:07;;;;;;;0.93;0.70;;;14.60;99.90;;;;;;5006361;28;20201;-81
2022/10/11 05:46:35;;;;;;;1.30;0.90;;;14.60;99.90;;;;;;5008411;28;20206;-81
2022/10/11 05:49:02;;;;;;;2.50;0.67;;;14.70;99.90;;;;;;5007373;28;20194;-80
2022/10/11 05:51:29;;;;;;;1.50;0.70;;;14.60;99.90;;;;;;5007408;28;20550;-80
2022/10/11 05:53:56;;;;;;;2.77;1.00;;;14.60;99.90;;;;;;5008038;28;20618;-80
2022/10/11 05:56:26;;;;;;;0.97;0.73;;;14.60;99.90;;;;;;5007453;28;20724;-81
2022/10/11 05:58:53;;;;;;;3.63;1.20;;;14.60;99.90;;;;;;5007480;28;20207;-81
2022/10/11 06:01:22;;;;;;;0.93;0.60;;;14.60;99.90;;;;;;5008824;28;20666;-80
2022/10/11 06:03:50;;;;;;;0.70;0.50;;;14.60;99.90;;;;;;5007461;28;20189;-81
2022/10/11 06:06:17;;;;;;;0.77;0.70;;;14.60;99.90;;;;;;5000462;28;20234;-81
2022/10/11 06:08:45;;;;;;;3.70;0.80;;;14.60;99.90;;;;;;5005067;28;20285;-81
2022/10/11 06:11:14;;;;;;;0.97;0.60;;;14.60;99.90;;;;;;5007893;28;20637;-80
2022/10/11 06:13:43;;;;;;;1.27;0.70;;;14.60;99.90;;;;;;5004099;28;20694;-81
2022/10/11 06:16:10;;;;;;;2.60;1.03;;;14.70;99.90;;;;;;5007539;28;20197;-80
2022/10/11 06:18:37;;;;;;;2.03;0.77;;;14.70;99.90;;;;;;5007796;28;20198;-80
2022/10/11 06:21:05;;;;;;;0.80;0.80;;;14.70;99.90;;;;;;5006311;28;20658;-80
2022/10/11 06:23:32;;;;;;;1.50;0.93;;;14.70;99.90;;;;;;5006964;28;20205;-80
2022/10/11 06:26:01;;;;;;;2.40;0.93;;;14.70;99.90;;;;;;5007963;28;20199;-81
2022/10/11 06:28:29;;;;;;;2.73;1.03;;;14.70;99.90;;;;;;5004172;28;20691;-81
2022/10/11 06:30:58;;;;;;;3.73;1.17;;;14.70;99.90;;;;;;5007095;28;20194;-82
2022/10/11 06:33:25;;;;;;;3.10;0.73;;;14.70;99.90;;;;;;5005166;28;20206;-80
2022/10/11 06:35:58;;;;;;;1.63;1.00;;;14.70;99.90;;;;;;5006676;28;20544;-80
2022/10/11 06:38:25;;;;;;;2.00;1.00;;;14.70;99.90;;;;;;5005096;28;20239;-81
2022/10/11 06:40:53;;;;;;;1.47;1.00;;;14.70;99.90;;;;;;5007222;28;20233;-81
2022/10/11 06:43:20;;;;;;;3.77;1.03;;;14.70;99.90;;;;;;5007287;28;20248;-81
2022/10/11 06:45:47;;;;;;;2.97;1.20;;;14.70;99.90;;;;;;5007539;28;20252;-82
2022/10/11 06:48:16;;;;;;;4.93;1.43;;;14.70;99.90;;;;;;5001372;28;20398;-81
2022/10/11 06:50:43;;;;;;;5.90;1.77;;;14.70;99.90;;;;;;5006799;28;20215;-81
2022/10/11 06:53:10;;;;;;;3.20;1.50;;;14.70;99.80;;;;;;5006701;28;20667;-83
2022/10/11 06:55:37;;;;;;;1.90;1.10;;;14.70;99.80;;;;;;5012194;28;20206;-82
2022/10/11 06:58:04;;;;;;;2.80;1.03;;;14.70;99.80;;;;;;5007831;28;20210;-82
2022/10/11 07:00:31;;;;;;;3.13;1.40;;;14.70;99.80;;;;;;5008612;28;20194;-81
2022/10/11 07:02:59;;;;;;;2.73;1.27;;;14.70;99.60;;;;;;5008744;28;20191;-81
2022/10/11 07:05:28;;;;;;;3.20;1.20;;;14.70;99.60;;;;;;5009175;28;20249;-81
2022/10/11 07:07:55;;;;;;;2.87;1.17;;;13.90;99.20;;;;;;5006416;28;21057;-81
2022/10/11 07:10:22;;;;;;;4.43;0.93;;;14.70;99.50;;;;;;5010200;28;20284;-82
2022/10/11 07:12:49;;;;;;;2.33;0.90;;;14.80;99.50;;;;;;5010060;28;20213;-82
2022/10/11 07:15:17;;;;;;;2.63;1.03;;;14.80;99.30;;;;;;5011514;28;20217;-81
2022/10/11 07:17:44;;;;;;;3.93;1.47;;;14.80;99.20;;;;;;5008691;28;20277;-80
2022/10/11 07:20:12;;;;;;;1.80;1.10;;;14.80;99.10;;;;;;5011753;28;20210;-82
2022/10/11 07:22:40;;;;;;;3.47;1.07;;;14.80;99.10;;;;;;5010776;28;20205;-81
2022/10/11 07:25:08;;;;;;;3.67;1.13;;;14.80;98.90;;;;;;5010326;28;20635;-81
2022/10/11 07:27:35;;;;;;;2.87;1.20;;;14.80;98.90;;;;;;5010215;28;20351;-80
2022/10/11 07:30:02;;;;;;;5.10;1.50;;;14.80;98.80;;;;;;5011631;28;20562;-81
2022/10/11 07:32:29;;;;;;;3.40;1.50;;;14.80;98.60;;;;;;5010711;28;20195;-81
2022/10/11 07:34:57;;;;;;;3.37;1.20;;;14.80;98.50;;;;;;5009722;28;20709;-81
2022/10/11 07:37:24;;;;;;;4.70;1.10;;;14.80;98.40;;;;;;5010321;28;20614;-82
2022/10/11 07:39:53;;;;;;;7.93;1.33;;;14.80;98.30;;;;;;5010625;28;20202;-80
2022/10/11 07:42:21;;;;;;;3.23;1.03;;;14.90;98.30;;;;;;5006789;28;20200;-82
2022/10/11 07:44:48;;;;;;;3.27;1.50;;;14.90;98.20;;;;;;5010082;28;20203;-82
2022/10/11 07:47:15;;;;;;;4.07;1.40;;;14.90;98.10;;;;;;5009253;28;20574;-82
2022/10/11 07:49:42;;;;;;;2.13;0.90;;;15.00;97.80;;;;;;5009547;28;20195;-82
2022/10/11 07:52:10;;;;;;;2.50;1.20;;;15.00;97.70;;;;;;5009319;28;20202;-83
2022/10/11 07:54:38;;;;;;;2.63;1.27;;;15.00;97.50;;;;;;5008284;28;20214;-82
2022/10/11 07:57:07;;;;;;;3.40;1.20;;;15.00;97.30;;;;;;5010700;28;20254;-83
2022/10/11 07:59:34;;;;;;;3.27;1.10;;;15.10;97.20;;;;;;5008909;28;20190;-81
2022/10/11 08:02:01;;;;;;;2.47;1.33;;;15.10;96.90;;;;;;5009532;28;20210;-82
2022/10/11 08:04:28;;;;;;;1.53;0.83;;;15.20;96.80;;;;;;5009438;28;20199;-81
2022/10/11 08:06:55;;;;;;;4.50;1.37;;;15.20;96.70;;;;;;5008275;28;20237;-81
2022/10/11 08:09:23;;;;;;;6.47;1.10;;;15.30;96.50;;;;;;5009805;28;20198;-81
2022/10/11 08:11:50;;;;;;;2.80;1.00;;;15.30;96.30;;;;;;5010859;28;20241;-81
2022/10/11 08:14:20;;;;;;;6.57;1.43;;;15.30;96.20;;;;;;5010279;28;20301;-81
2022/10/11 08:16:47;;;;;;;3.87;1.30;;;15.30;96.00;;;;;;5009883;28;20298;-81
2022/10/11 08:19:14;;;;;;;2.60;1.20;;;15.30;95.70;;;;;;5007845;28;20622;-81
2022/10/11 08:21:42;;;;;;;1.63;0.83;;;15.30;95.70;;;;;;5009526;28;20203;-82
2022/10/11 08:24:09;;;;;;;7.03;1.30;;;15.30;95.60;;;;;;5010124;28;20195;-80
2022/10/11 08:26:36;;;;;;;3.93;1.20;;;15.30;95.20;;;;;;5009369;28;20222;-83
2022/10/11 08:29:04;;;;;;;2.90;1.10;;;15.30;95.10;;;;;;5010402;28;20304;-82
2022/10/11 08:31:33;;;;;;;5.63;1.37;;;15.40;94.90;;;;;;5008785;28;20206;-82
2022/10/11 08:34:01;;;;;;;4.40;1.10;;;15.30;94.40;;;;;;5006379;28;20411;-82
2022/10/11 08:36:28;;;;;;;5.80;1.50;;;15.30;93.90;;;;;;5009459;28;20281;-81
2022/10/11 08:38:55;;;;;;;4.03;1.63;;;15.40;93.70;;;;;;5022019;28;20218;-81
2022/10/11 08:41:31;;;;;;;3.20;1.13;;;15.40;93.60;;;;;;5034190;28;20183;-81
2022/10/11 08:44:10;;;;;;;4.17;1.30;;;15.40;93.50;;;;;;5008107;28;20623;-83
2022/10/11 08:46:42;;;;;;;5.60;1.60;;;15.40;93.10;;;;;;5007551;28;20184;-83
2022/10/11 08:49:15;;;;;;;3.37;1.27;;;15.40;92.60;;;;;;5009068;28;20188;-82
2022/10/11 08:51:45;;;;;;;4.47;1.30;;;15.40;92.50;;;;;;5008391;28;20195;-80
2022/10/11 08:54:17;;;;;;;2.53;1.17;;;15.40;92.40;;;;;;5006957;28;20220;-82
2022/10/11 08:56:45;;;;;;;2.13;1.30;;;15.40;92.40;;;;;;5010061;28;20667;-82
2022/10/11 08:59:35;;;;;;;2.63;1.27;;;15.40;92.40;;;;;;5006106;28;20206;-81
2022/10/11 09:02:16;;;;;;;2.83;1.20;;;15.40;92.40;;;;;;5008399;28;20195;-82
2022/10/11 09:04:43;;;;;;;3.90;1.07;;;15.50;92.40;;;;;;5008745;28;20207;-82
2022/10/11 09:07:23;;;;;;;8.20;1.10;;;15.50;92.50;;;;;;5009369;28;20205;-82
2022/10/11 09:10:05;;;;;;;1.80;0.90;;;15.50;92.50;;;;;;5008569;28;20191;-82
2022/10/11 09:12:45;;;;;;;2.83;0.80;;;15.60;92.50;;;;;;5007987;28;20194;-82
2022/10/11 09:15:24;;;;;;;3.40;1.27;;;15.60;92.30;;;;;;5007978;28;20218;-82
2022/10/11 09:18:15;;;;;;;4.20;1.63;;;15.70;92.30;;;;;;5006292;28;20357;-82
2022/10/11 09:20:52;;;;;;;2.50;1.23;;;15.70;92.10;;;;;;5008055;28;20623;-82
2022/10/11 09:23:35;;;;;;;4.03;1.13;;;15.80;92.20;;;;;;5008598;28;20191;-81
2022/10/11 09:26:06;;;;;;;1.80;0.90;;;15.80;92.30;;;;;;5007588;28;20737;-83
2022/10/11 09:28:46;;;;;;;2.93;1.13;;;15.80;92.20;;;;;;5009103;28;20219;-81
2022/10/11 09:31:13;;;;;;;2.23;0.93;;;16.00;92.20;;;;;;5007502;28;20509;-83
2022/10/11 09:33:45;;;;;;;1.47;0.93;;;16.00;92.20;;;;;;5005160;28;20219;-81
2022/10/11 09:36:20;;;;;;;2.53;1.30;;;16.00;92.20;;;;;;5007855;28;20199;-83
2022/10/11 09:38:54;;;;;;;1.77;1.17;;;16.00;92.30;;;;;;5008509;28;20292;-81
2022/10/11 09:41:26;;;;;;;5.03;1.33;;;16.00;92.50;;;;;;5008070;28;20200;-82
2022/10/11 09:43:54;;;;;;;2.43;0.90;;;15.90;92.60;;;;;;5007405;28;20198;-82
2022/10/11 09:46:24;;;;;;;2.67;1.00;;;16.00;92.70;;;;;;5007030;28;20215;-80
2022/10/11 09:48:55;;;;;;;0.67;0.67;;;16.00;92.70;;;;;;5004566;28;20191;-82
2022/10/11 09:51:26;;;;;;;1.57;0.93;;;16.10;92.70;;;;;;5024295;28;20207;-82
2022/10/11 09:53:57;;;;;;;2.10;1.03;;;16.20;92.80;;;;;;5007420;28;20215;-81
2022/10/11 09:56:25;;;;;;;2.37;1.07;;;16.30;92.80;;;;;;5007902;28;20203;-82
2022/10/11 09:59:26;;;;;;;0.87;0.80;;;16.40;92.80;;;;;;5009431;28;20198;-81
2022/10/11 10:02:18;;;;;;;1.97;1.20;;;17.00;92.80;;;;;;5007559;28;20552;-81
2022/10/11 10:05:01;;;;;;;1.40;0.80;;;18.70;91.90;;;;;;5008646;28;20199;-78
2022/10/11 10:07:30;;;;;;;2.60;1.20;;;20.60;90.30;;;;;;5008644;28;20351;-82
2022/10/11 10:09:58;;;;;;;2.08;1.23;;;22.30;84.60;;;;;;5008517;28;20217;-82
2022/10/11 10:12:28;;;;;;;2.17;1.10;;;23.50;79.10;;;;;;5006982;28;20246;-82
2022/10/11 10:15:03;;;;;;;2.90;1.05;;;24.20;75.40;;;;;;5009332;28;20207;-83
2022/10/11 10:17:31;;;;;;;5.25;1.55;;;25.00;71.90;;;;;;5007859;28;20222;-82
2022/10/11 10:20:00;;;;;;;3.90;1.17;;;26.00;68.40;;;;;;5008326;28;20191;-80
2022/10/11 10:22:30;;;;;;;2.65;1.30;;;26.40;65.50;;;;;;5008065;28;20209;-80
2022/10/11 10:25:00;;;;;;;2.58;1.30;;;26.80;64.10;;;;;;5003955;28;20659;-81
2022/10/11 10:27:29;;;;;;;4.03;1.40;;;27.10;60.20;;;;;;5007546;28;20198;-81
2022/10/11 10:30:04;;;;;;;3.92;1.17;;;27.10;58.30;;;;;;5009611;28;20192;-81
2022/10/11 10:32:39;;;;;;;1.52;1.10;;;26.10;58.40;;;;;;5011935;28;20529;-81
2022/10/11 10:35:15;;;;;;;3.50;1.30;;;25.00;59.20;;;;;;5011206;28;20207;-82
2022/10/11 10:37:45;;;;;;;1.70;0.95;;;23.90;60.20;;;;;;5003678;28;20206;-81
2022/10/11 10:40:18;;;;;;;4.15;1.40;;;23.00;60.70;;;;;;5005310;28;20210;-81
2022/10/11 10:42:45;;;;;;;2.53;0.98;;;22.30;61.00;;;;;;5011474;28;20199;-81
2022/10/11 10:45:16;;;;;;;1.98;1.13;;;21.60;61.10;;;;;;5012387;28;20214;-82
2022/10/11 10:48:13;;;;;;;3.63;1.50;;;21.20;62.20;;;;;;5007868;28;20210;-82
2022/10/11 10:50:52;;;;;;;3.70;1.73;;;20.70;62.20;;;;;;5008395;28;20191;-81
2022/10/11 10:53:27;;;;;;;2.72;1.20;;;20.30;61.00;;;;;;5006985;28;20199;-82
2022/10/11 10:56:01;;;;;;;4.15;1.38;;;19.90;60.80;;;;;;5008261;28;20257;-82
2022/10/11 10:58:51;;;;;;;3.47;1.50;;;19.60;60.80;;;;;;5008164;28;20390;-81
2022/10/11 11:01:23;;;;;;;3.00;1.10;;;19.40;61.20;;;;;;5006654;28;21041;-81
2022/10/11 11:03:55;;;;;;;1.90;1.20;;;19.20;61.30;;;;;;5006071;28;20667;-82
2022/10/11 11:06:31;;;;;;;3.42;1.23;;;19.00;61.50;;;;;;5005460;28;20238;-82
2022/10/11 11:09:05;;;;;;;4.93;1.80;;;18.90;62.00;;;;;;5005978;28;20724;-82
2022/10/11 11:11:43;;;;;;;2.72;1.30;;;18.80;62.30;;;;;;5004662;28;20203;-82
2022/10/11 11:14:22;;;;;;;3.30;1.40;;;18.70;62.60;;;;;;5007353;28;20214;-82
2022/10/11 11:17:00;;;;;;;2.88;1.63;;;18.70;62.70;;;;;;5007812;28;20547;-82
2022/10/11 11:19:39;;;;;;;3.38;1.10;;;18.60;63.00;;;;;;5006550;28;20191;-82
2022/10/11 11:22:19;;;;;;;2.53;1.00;;;18.50;63.40;;;;;;5006603;28;20199;-81
2022/10/11 11:24:57;;;;;;;5.40;1.23;;;18.40;63.70;;;;;;5006851;28;20643;-81
2022/10/11 11:27:41;;;;;;;2.72;1.20;;;18.30;63.90;;;;;;5007322;28;20191;-82
2022/10/11 11:30:12;;;;;;;5.32;1.60;;;18.20;64.00;;;;;;5008295;28;20199;-81
2022/10/11 11:32:49;;;;;;;2.20;1.08;;;18.20;63.20;;;;;;5005263;28;20196;-81
2022/10/11 11:35:26;;;;;;;2.58;1.25;;;18.10;62.90;;;;;;5007258;28;20210;-82
2022/10/11 11:38:00;;;;;;;3.15;1.10;;;18.00;62.50;;;;;;5004848;28;20271;-81
2022/10/11 11:40:34;;;;;;;5.55;1.33;;;17.90;62.50;;;;;;5009940;28;20195;-80
2022/10/11 11:43:06;;;;;;;7.63;1.60;;;17.80;62.30;;;;;;5008913;28;20191;-80
2022/10/11 11:45:42;;;;;;;2.30;1.25;;;17.80;62.50;;;;;;5008256;28;21127;-80
2022/10/11 11:48:17;;;;;;;1.88;1.20;;;17.70;63.10;;;;;;5010310;28;20191;-81
2022/10/11 11:50:50;;;;;;;3.17;1.33;;;17.70;63.50;;;;;;5010285;28;20218;-82
2022/10/11 11:53:23;;;;;;;5.55;1.70;;;17.60;63.70;;;;;;5009572;28;20206;-82
2022/10/11 11:55:59;;;;;;;3.33;1.20;;;17.60;63.70;;;;;;5011775;28;20214;-82
2022/10/11 11:58:34;;;;;;;5.90;1.47;;;17.70;64.20;;;;;;5009451;28;20194;-82
2022/10/11 12:01:06;;;;;;;3.63;1.50;;;17.70;64.40;;;;;;5009073;28;20191;-80
2022/10/11 12:03:38;;;;;;;6.43;1.70;;;17.60;64.70;;;;;;5006951;28;20260;-82
2022/10/11 12:06:27;;;;;;;3.35;1.17;;;17.60;65.10;;;;;;5010687;28;20227;-82
2022/10/11 12:09:03;;;;;;;2.40;1.10;;;17.60;65.00;;;;;;5008392;28;20204;-82
2022/10/11 12:11:45;;;;;;;2.92;1.30;;;17.50;64.50;;;;;;5006445;28;20238;-82
2022/10/11 12:14:23;;;;;;;3.85;1.40;;;17.50;64.50;;;;;;5009888;28;20194;-81
2022/10/11 12:17:14;;;;;;;3.33;1.43;;;17.50;64.40;;;;;;5007905;28;20717;-80
2022/10/11 12:19:57;;;;;;;3.20;1.35;;;17.50;64.30;;;;;;5006037;28;20218;-81
2022/10/11 12:22:56;;;;;;;6.40;1.70;;;17.50;64.30;;;;;;5008923;28;20556;-80
2022/10/11 12:25:44;;;;;;;2.85;1.45;;;17.40;64.50;;;;;;5006593;28;20206;-82
2022/10/11 12:28:59;;;;;;;2.35;0.93;;;17.50;65.10;;;;;;5009818;28;20286;-82
2022/10/11 12:31:27;;;;;;;2.53;1.15;;;18.10;65.30;;;;;;5009726;28;20810;-82
2022/10/11 12:34:18;;;;;;;2.42;1.08;;;19.10;64.40;;;;;;5010374;28;20211;-81
2022/10/11 12:36:47;;;;;;;3.00;1.08;;;20.10;63.40;;;;;;5009179;28;20192;-82
2022/10/11 12:39:43;;;;;;;2.17;0.82;;;20.80;62.20;;;;;;5008358;28;20230;-82
2022/10/11 12:42:23;;;;;;;2.67;1.20;;;21.20;60.80;;;;;;5007911;28;20192;-82
2022/10/11 12:45:30;;;;;;;2.05;0.93;;;21.30;60.20;;;;;;5006034;28;20226;-83
2022/10/11 12:48:13;;;;;;;2.72;0.98;;;21.40;59.60;;;;;;5006956;28;20202;-82
2022/10/11 12:50:50;;;;;;;1.45;0.93;;;21.60;59.80;;;;;;5010969;28;20233;-82
2022/10/11 12:53:34;;;;;;;4.35;1.20;;;22.40;59.20;;;;;;5008519;28;20738;-82
2022/10/11 12:56:04;;;;;;;1.40;1.20;;;22.80;57.70;;;;;;5009714;28;20275;-82
2022/10/11 12:58:39;;;;;;;2.33;1.10;;;22.50;57.30;;;;;;5009051;28;20207;-82
2022/10/11 13:01:20;;;;;;;1.77;0.80;;;21.90;57.40;;;;;;5008796;28;20201;-81
2022/10/11 13:03:52;;;;;;;2.08;1.05;;;21.30;57.90;;;;;;5009623;28;20195;-82
2022/10/11 13:06:23;;;;;;;3.78;1.08;;;21.00;58.10;;;;;;5007559;28;20264;-82
2022/10/11 13:08:56;;;;;;;3.20;1.05;;;20.70;58.30;;;;;;5008114;28;20198;-81
2022/10/11 13:11:28;;;;;;;3.00;1.20;;;20.40;58.50;;;;;;5008170;28;20258;-81